Time,TemperatureF,DewpointF,PressureIn,WindDirection,WindDirectionDegrees,WindSpeedMPH,WindSpeedGustMPH,Humidity,HourlyPrecipIn,Conditions,Clouds,dailyrainin,SoftwareType,DateUTC
2013-03-20 00:02:00,15.6,0.6,29.51,NW,315,0.0,3.8,51,0.00,,,0.00,WUHU216HW,2013-03-20 08:02:00,
2013-03-20 00:07:00,15.6,1.0,29.51,NNW,338,0.0,0.0,52,0.00,,,0.00,WUHU216HW,2013-03-20 08:07:00,
2013-03-20 00:12:00,15.6,1.0,29.51,NNW,338,0.0,0.0,52,0.00,,,0.00,WUHU216HW,2013-03-20 08:12:00,
2013-03-20 00:17:00,15.6,1.0,29.51,NW,315,0.0,0.0,52,0.00,,,0.00,WUHU216HW,2013-03-20 08:17:00,
2013-03-20 00:22:00,15.4,0.8,29.52,North,0,0.0,0.0,52,0.00,,,0.00,WUHU216HW,2013-03-20 08:22:00,
2013-03-20 00:27:00,15.4,0.8,29.52,NNW,338,0.0,0.0,52,0.00,,,0.00,WUHU216HW,2013-03-20 08:27:00,
2013-03-20 00:32:00,15.0,0.5,29.52,West,270,0.0,1.5,52,0.00,,,0.00,WUHU216HW,2013-03-20 08:32:00,
2013-03-20 00:37:00,15.0,0.5,29.52,North,0,2.2,3.8,52,0.00,,,0.00,WUHU216HW,2013-03-20 08:37:00,
2013-03-20 00:42:00,14.9,0.3,29.52,North,0,0.0,3.8,52,0.00,,,0.00,WUHU216HW,2013-03-20 08:42:00,
2013-03-20 00:48:00,14.9,0.7,29.52,NW,315,2.9,2.9,53,0.00,,,0.00,WUHU216HW,2013-03-20 08:48:00,
2013-03-20 00:52:00,14.9,0.7,29.52,NNW,338,6.0,6.0,53,0.00,,,0.00,WUHU216HW,2013-03-20 08:52:00,
2013-03-20 00:57:00,14.9,0.7,29.52,West,270,0.0,6.0,53,0.00,,,0.00,WUHU216HW,2013-03-20 08:57:00,
2013-03-20 01:03:00,14.9,1.1,29.52,North,0,8.5,8.5,54,0.00,,,0.00,WUHU216HW,2013-03-20 09:03:00,
2013-03-20 01:08:00,15.2,1.4,29.52,NW,315,0.0,8.5,54,0.00,,,0.00,WUHU216HW,2013-03-20 09:08:00,
2013-03-20 01:13:00,15.2,1.4,29.52,NNE,23,3.1,8.5,54,0.00,,,0.00,WUHU216HW,2013-03-20 09:13:00,
2013-03-20 01:18:00,15.2,1.4,29.52,NNW,338,0.0,6.0,54,0.00,,,0.00,WUHU216HW,2013-03-20 09:18:00,
2013-03-20 01:23:00,15.0,1.3,29.52,North,0,0.0,6.0,54,0.00,,,0.00,WUHU216HW,2013-03-20 09:23:00,
2013-03-20 01:28:00,14.9,0.9,29.52,NNW,338,0.0,1.3,53,0.00,,,0.00,WUHU216HW,2013-03-20 09:28:00,
2013-03-20 01:33:00,14.7,0.5,29.52,North,0,0.0,0.0,53,0.00,,,0.00,WUHU216HW,2013-03-20 09:33:00,
2013-03-20 01:38:00,14.7,0.9,29.52,North,0,0.0,2.0,54,0.00,,,0.00,WUHU216HW,2013-03-20 09:38:00,
2013-03-20 01:43:00,14.7,0.7,29.53,WSW,248,0.0,2.0,54,0.00,,,0.00,WUHU216HW,2013-03-20 09:43:00,
2013-03-20 01:48:00,14.5,0.7,29.53,North,0,0.0,0.0,54,0.00,,,0.00,WUHU216HW,2013-03-20 09:48:00,
2013-03-20 01:53:00,14.1,0.4,29.52,NNW,338,0.0,0.0,54,0.00,,,0.00,WUHU216HW,2013-03-20 09:53:00,
2013-03-20 01:58:00,14.1,0.4,29.52,North,0,0.0,0.0,54,0.00,,,0.00,WUHU216HW,2013-03-20 09:58:00,
2013-03-20 02:03:00,13.8,0.1,29.52,NNW,338,0.0,0.0,54,0.00,,,0.00,WUHU216HW,2013-03-20 10:03:00,
2013-03-20 02:08:00,13.8,0.1,29.52,North,0,0.0,0.0,54,0.00,,,0.00,WUHU216HW,2013-03-20 10:08:00,
2013-03-20 02:13:00,13.8,0.1,29.52,North,0,0.0,5.1,54,0.00,,,0.00,WUHU216HW,2013-03-20 10:13:00,
2013-03-20 02:18:00,13.2,-0.4,29.53,North,0,0.0,5.1,54,0.00,,,0.00,WUHU216HW,2013-03-20 10:18:00,
2013-03-20 02:23:00,12.0,-1.5,29.53,North,0,0.0,0.0,54,0.00,,,0.00,WUHU216HW,2013-03-20 10:23:00,
2013-03-20 02:28:00,11.1,-2.3,29.53,North,0,0.0,0.0,54,0.00,,,0.00,WUHU216HW,2013-03-20 10:28:00,
2013-03-20 02:33:00,10.2,-2.8,29.53,North,0,0.0,0.0,55,0.00,,,0.00,WUHU216HW,2013-03-20 10:33:00,
2013-03-20 02:38:00,9.1,-3.5,29.52,North,0,0.0,0.0,56,0.00,,,0.00,WUHU216HW,2013-03-20 10:38:00,
2013-03-20 02:43:00,8.6,-4.0,29.53,North,0,0.0,0.0,56,0.00,,,0.00,WUHU216HW,2013-03-20 10:43:00,
2013-03-20 02:48:00,7.8,-4.7,29.53,North,0,0.0,0.0,56,0.00,,,0.00,WUHU216HW,2013-03-20 10:48:00,
2013-03-20 02:53:00,7.3,-4.8,29.53,North,0,0.0,0.0,57,0.00,,,0.00,WUHU216HW,2013-03-20 10:53:00,
2013-03-20 02:58:00,6.9,-5.1,29.53,North,0,0.0,0.0,57,0.00,,,0.00,WUHU216HW,2013-03-20 10:58:00,
2013-03-20 03:03:00,6.6,-5.4,29.53,North,0,0.0,0.0,57,0.00,,,0.00,WUHU216HW,2013-03-20 11:03:00,
2013-03-20 03:08:00,5.7,-5.9,29.53,North,0,0.0,0.0,58,0.00,,,0.00,WUHU216HW,2013-03-20 11:08:00,
2013-03-20 03:13:00,5.5,-6.1,29.53,ENE,68,0.0,0.0,58,0.00,,,0.00,WUHU216HW,2013-03-20 11:13:00,
2013-03-20 03:18:00,5.0,-6.7,29.54,ENE,68,0.0,0.0,58,0.00,,,0.00,WUHU216HW,2013-03-20 11:18:00,
2013-03-20 03:23:00,4.6,-6.6,29.53,ENE,68,0.0,0.0,59,0.00,,,0.00,WUHU216HW,2013-03-20 11:23:00,
2013-03-20 03:28:00,4.2,-7.0,29.54,ENE,68,0.0,0.0,59,0.00,,,0.00,WUHU216HW,2013-03-20 11:28:00,
2013-03-20 03:33:00,4.1,-7.1,29.53,ENE,68,0.0,0.0,59,0.00,,,0.00,WUHU216HW,2013-03-20 11:33:00,
2013-03-20 03:38:00,3.7,-7.1,29.54,ENE,68,0.0,0.0,60,0.00,,,0.00,WUHU216HW,2013-03-20 11:38:00,
2013-03-20 03:43:00,3.3,-7.4,29.53,ENE,68,0.0,0.0,60,0.00,,,0.00,WUHU216HW,2013-03-20 11:43:00,
2013-03-20 03:48:00,3.0,-7.7,29.53,East,90,0.0,0.0,60,0.00,,,0.00,WUHU216HW,2013-03-20 11:48:00,
2013-03-20 03:53:00,2.8,-7.9,29.53,East,90,0.0,0.0,60,0.00,,,0.00,WUHU216HW,2013-03-20 11:53:00,
2013-03-20 03:58:00,2.4,-8.3,29.53,ESE,113,0.0,0.0,60,0.00,,,0.00,WUHU216HW,2013-03-20 11:58:00,
2013-03-20 04:03:00,2.4,-8.3,29.53,ESE,113,0.0,0.0,60,0.00,,,0.00,WUHU216HW,2013-03-20 12:03:00,
2013-03-20 04:08:00,2.4,-7.9,29.53,NE,45,0.0,0.0,61,0.00,,,0.00,WUHU216HW,2013-03-20 12:08:00,
2013-03-20 04:13:00,2.4,-7.6,29.53,NE,45,0.0,0.0,62,0.00,,,0.00,WUHU216HW,2013-03-20 12:13:00,
2013-03-20 04:18:00,2.3,-7.8,29.53,NE,45,0.0,0.0,62,0.00,,,0.00,WUHU216HW,2013-03-20 12:18:00,
2013-03-20 04:23:00,2.1,-8.3,29.54,NE,45,0.0,0.0,61,0.00,,,0.00,WUHU216HW,2013-03-20 12:23:00,
2013-03-20 04:29:00,1.7,-8.7,29.53,East,90,0.0,0.0,61,0.00,,,0.00,WUHU216HW,2013-03-20 12:29:00,
2013-03-20 04:34:00,1.4,-9.0,29.54,East,90,0.0,0.0,61,0.00,,,0.00,WUHU216HW,2013-03-20 12:34:00,
2013-03-20 04:39:00,1.2,-8.9,29.54,NW,315,0.0,0.0,62,0.00,,,0.00,WUHU216HW,2013-03-20 12:39:00,
2013-03-20 04:44:00,1.2,-8.6,29.54,NW,315,0.0,0.0,63,0.00,,,0.00,WUHU216HW,2013-03-20 12:44:00,
2013-03-20 04:49:00,1.2,-8.6,29.54,SE,135,0.0,0.0,63,0.00,,,0.00,WUHU216HW,2013-03-20 12:49:00,
2013-03-20 04:54:00,1.2,-8.6,29.54,SE,135,0.0,0.0,63,0.00,,,0.00,WUHU216HW,2013-03-20 12:54:00,
2013-03-20 04:59:00,1.0,-8.7,29.54,SE,135,0.0,0.0,63,0.00,,,0.00,WUHU216HW,2013-03-20 12:59:00,
2013-03-20 05:04:00,1.0,-8.7,29.55,SE,135,0.0,0.0,63,0.00,,,0.00,WUHU216HW,2013-03-20 13:04:00,
2013-03-20 05:09:00,0.5,-9.2,29.54,SE,135,0.0,0.0,63,0.00,,,0.00,WUHU216HW,2013-03-20 13:09:00,
2013-03-20 05:14:00,0.3,-9.4,29.54,SE,135,0.0,0.0,63,0.00,,,0.00,WUHU216HW,2013-03-20 13:14:00,
2013-03-20 05:19:00,0.1,-9.6,29.54,SE,135,0.0,0.0,63,0.00,,,0.00,WUHU216HW,2013-03-20 13:19:00,
2013-03-20 05:24:00,-0.2,-9.6,29.54,SE,135,0.0,0.0,64,0.00,,,0.00,WUHU216HW,2013-03-20 13:24:00,
2013-03-20 05:29:00,-0.5,-9.9,29.54,SE,135,0.0,0.0,64,0.00,,,0.00,WUHU216HW,2013-03-20 13:29:00,
2013-03-20 05:34:00,-0.5,-9.9,29.55,SE,135,0.0,0.0,64,0.00,,,0.00,WUHU216HW,2013-03-20 13:34:00,
2013-03-20 05:39:00,-0.7,-10.1,29.55,SE,135,0.0,0.0,64,0.00,,,0.00,WUHU216HW,2013-03-20 13:39:00,
2013-03-20 05:44:00,-1.1,-10.4,29.55,SE,135,0.0,0.0,64,0.00,,,0.00,WUHU216HW,2013-03-20 13:44:00,
2013-03-20 05:49:00,-1.1,-10.4,29.55,SE,135,0.0,0.0,64,0.00,,,0.00,WUHU216HW,2013-03-20 13:49:00,
2013-03-20 05:54:00,-1.4,-10.8,29.55,SE,135,0.0,0.0,64,0.00,,,0.00,WUHU216HW,2013-03-20 13:54:00,
2013-03-20 05:59:00,-1.6,-11.0,29.55,SE,135,0.0,0.0,64,0.00,,,0.00,WUHU216HW,2013-03-20 13:59:00,
2013-03-20 06:04:00,-1.6,-11.0,29.55,SE,135,0.0,0.0,64,0.00,,,0.00,WUHU216HW,2013-03-20 14:04:00,
2013-03-20 06:09:00,-2.0,-11.3,29.55,SE,135,0.0,0.0,64,0.00,,,0.00,WUHU216HW,2013-03-20 14:09:00,
2013-03-20 06:14:00,-2.0,-11.0,29.55,SE,135,0.0,0.0,65,0.00,,,0.00,WUHU216HW,2013-03-20 14:14:00,
2013-03-20 06:19:00,-2.0,-11.0,29.55,SE,135,0.0,0.0,65,0.00,,,0.00,WUHU216HW,2013-03-20 14:19:00,
2013-03-20 06:24:00,-2.2,-11.2,29.55,SE,135,0.0,0.0,65,0.00,,,0.00,WUHU216HW,2013-03-20 14:24:00,
2013-03-20 06:29:00,-2.3,-11.3,29.55,SE,135,0.0,0.0,65,0.00,,,0.00,WUHU216HW,2013-03-20 14:29:00,
2013-03-20 06:34:00,-2.3,-11.3,29.55,SE,135,0.0,0.0,65,0.00,,,0.00,WUHU216HW,2013-03-20 14:34:00,
2013-03-20 06:39:00,-2.3,-11.3,29.55,SE,135,0.0,0.0,65,0.00,,,0.00,WUHU216HW,2013-03-20 14:39:00,
2013-03-20 06:44:00,-2.3,-11.3,29.55,SE,135,0.0,0.0,65,0.00,,,0.00,WUHU216HW,2013-03-20 14:44:00,
2013-03-20 06:49:00,-2.3,-11.3,29.55,SE,135,0.0,0.0,65,0.00,,,0.00,WUHU216HW,2013-03-20 14:49:00,
2013-03-20 06:54:00,-2.3,-11.3,29.55,SE,135,0.0,0.0,65,0.00,,,0.00,WUHU216HW,2013-03-20 14:54:00,
2013-03-20 06:59:00,-2.3,-11.0,29.55,NE,45,0.0,0.0,66,0.00,,,0.00,WUHU216HW,2013-03-20 14:59:00,
2013-03-20 07:04:00,-2.3,-11.0,29.55,NE,45,0.0,0.0,66,0.00,,,0.00,WUHU216HW,2013-03-20 15:04:00,
2013-03-20 07:09:00,-2.0,-10.3,29.55,NE,45,0.0,0.0,67,0.00,,,0.00,WUHU216HW,2013-03-20 15:09:00,
2013-03-20 07:14:00,-1.8,-10.2,29.55,NE,45,0.0,0.0,67,0.00,,,0.00,WUHU216HW,2013-03-20 15:14:00,
2013-03-20 07:19:00,-1.8,-10.2,29.55,NE,45,0.0,0.0,67,0.00,,,0.00,WUHU216HW,2013-03-20 15:19:00,
2013-03-20 07:24:00,-1.6,-10.0,29.55,NE,45,0.0,0.0,67,0.00,,,0.00,WUHU216HW,2013-03-20 15:24:00,
2013-03-20 07:29:00,-1.6,-10.0,29.55,NE,45,0.0,0.0,67,0.00,,,0.00,WUHU216HW,2013-03-20 15:29:00,
2013-03-20 07:34:00,-1.6,-10.0,29.56,NE,45,0.0,0.0,67,0.00,,,0.00,WUHU216HW,2013-03-20 15:34:00,
2013-03-20 07:39:00,-2.0,-10.0,29.55,ESE,113,0.0,0.0,68,0.00,,,0.00,WUHU216HW,2013-03-20 15:39:00,
2013-03-20 07:44:00,-2.2,-10.2,29.56,ESE,113,0.0,0.0,68,0.00,,,0.00,WUHU216HW,2013-03-20 15:44:00,
2013-03-20 07:49:00,-2.3,-10.4,29.56,ESE,113,0.0,0.0,68,0.00,,,0.00,WUHU216HW,2013-03-20 15:49:00,
2013-03-20 07:54:00,-2.9,-10.9,29.56,ESE,113,0.0,0.0,68,0.00,,,0.00,WUHU216HW,2013-03-20 15:54:00,
2013-03-20 07:59:00,-3.2,-11.2,29.56,ESE,113,0.0,0.0,68,0.00,,,0.00,WUHU216HW,2013-03-20 15:59:00,
2013-03-20 08:04:00,-3.4,-11.4,29.56,ESE,113,0.0,0.0,68,0.00,,,0.00,WUHU216HW,2013-03-20 16:04:00,
2013-03-20 08:09:00,-3.8,-11.8,29.56,ESE,113,0.0,0.0,68,0.00,,,0.00,WUHU216HW,2013-03-20 16:09:00,
2013-03-20 08:14:00,-4.1,-12.1,29.56,ESE,113,0.0,0.0,68,0.00,,,0.00,WUHU216HW,2013-03-20 16:14:00,
2013-03-20 08:19:00,-4.3,-12.3,29.55,ESE,113,0.0,0.0,68,0.00,,,0.00,WUHU216HW,2013-03-20 16:19:00,
2013-03-20 08:24:00,-4.3,-12.6,29.56,ESE,113,0.0,0.0,67,0.00,,,0.00,WUHU216HW,2013-03-20 16:24:00,
2013-03-20 08:29:00,-4.3,-12.6,29.56,ESE,113,0.0,0.0,67,0.00,,,0.00,WUHU216HW,2013-03-20 16:29:00,
2013-03-20 08:34:00,-4.3,-12.3,29.55,ESE,113,0.0,0.0,68,0.00,,,0.00,WUHU216HW,2013-03-20 16:34:00,
2013-03-20 08:39:00,-4.3,-12.3,29.55,ESE,113,0.0,0.0,68,0.00,,,0.00,WUHU216HW,2013-03-20 16:39:00,
2013-03-20 08:44:00,-4.3,-12.3,29.56,ESE,113,0.0,0.0,68,0.00,,,0.00,WUHU216HW,2013-03-20 16:44:00,
2013-03-20 08:49:00,-4.1,-12.1,29.56,ESE,113,0.0,0.0,68,0.00,,,0.00,WUHU216HW,2013-03-20 16:49:00,
2013-03-20 08:54:00,-4.1,-12.1,29.56,ESE,113,0.0,0.0,68,0.00,,,0.00,WUHU216HW,2013-03-20 16:54:00,
2013-03-20 08:59:00,-4.1,-12.1,29.56,ESE,113,0.0,0.0,68,0.00,,,0.00,WUHU216HW,2013-03-20 16:59:00,
2013-03-20 09:04:00,-4.0,-11.9,29.56,ESE,113,0.0,0.0,68,0.00,,,0.00,WUHU216HW,2013-03-20 17:04:00,
2013-03-20 09:09:00,-3.8,-11.8,29.56,ESE,113,0.0,0.0,68,0.00,,,0.00,WUHU216HW,2013-03-20 17:09:00,
2013-03-20 09:14:00,-3.6,-11.8,29.56,ESE,113,0.0,0.0,68,0.00,,,0.00,WUHU216HW,2013-03-20 17:14:00,
2013-03-20 09:19:00,-3.2,-11.2,29.55,ESE,113,0.0,0.0,68,0.00,,,0.00,WUHU216HW,2013-03-20 17:19:00,
2013-03-20 09:24:00,-2.7,-10.4,29.55,ESE,113,0.0,0.0,69,0.00,,,0.00,WUHU216HW,2013-03-20 17:24:00,
2013-03-20 09:29:00,-2.2,-9.9,29.55,ESE,113,0.0,0.0,69,0.00,,,0.00,WUHU216HW,2013-03-20 17:29:00,
2013-03-20 09:34:00,-1.6,-9.4,29.55,ESE,113,0.0,0.0,69,0.00,,,0.00,WUHU216HW,2013-03-20 17:34:00,
2013-03-20 09:39:00,-0.7,-8.2,29.55,ESE,113,0.0,0.0,70,0.00,,,0.00,WUHU216HW,2013-03-20 17:39:00,
2013-03-20 09:44:00,1.0,-5.9,29.55,ESE,113,0.0,0.0,72,0.00,,,0.00,WUHU216HW,2013-03-20 17:44:00,
2013-03-20 09:49:00,2.1,-4.9,29.55,ESE,113,0.0,0.0,72,0.00,,,0.00,WUHU216HW,2013-03-20 17:49:00,
2013-03-20 09:54:00,2.8,-4.4,29.55,ESE,113,0.0,0.0,71,0.00,,,0.00,WUHU216HW,2013-03-20 17:54:00,
2013-03-20 09:59:00,4.2,-2.8,29.55,ESE,113,0.0,0.0,72,0.00,,,0.00,WUHU216HW,2013-03-20 17:59:00,
2013-03-20 10:04:00,7.7,1.6,29.55,ESE,113,0.0,0.0,76,0.00,,,0.00,WUHU216HW,2013-03-20 18:04:00,
2013-03-20 10:09:00,10.2,3.1,29.55,South,180,0.0,0.0,73,0.00,,,0.00,WUHU216HW,2013-03-20 18:09:00,
2013-03-20 10:14:00,15.8,8.0,29.55,West,270,0.0,0.0,71,0.00,,,0.00,WUHU216HW,2013-03-20 18:14:00,
2013-03-20 10:19:00,17.2,7.4,29.55,West,270,0.0,0.0,65,0.00,,,0.00,WUHU216HW,2013-03-20 18:19:00,
2013-03-20 10:24:00,16.3,5.5,29.55,West,270,0.0,0.0,62,0.00,,,0.00,WUHU216HW,2013-03-20 18:24:00,
2013-03-20 10:29:00,14.7,2.9,29.54,WSW,248,0.0,0.0,59,0.00,,,0.00,WUHU216HW,2013-03-20 18:29:00,
2013-03-20 10:34:00,13.6,1.9,29.55,WSW,248,0.0,0.0,59,0.00,,,0.00,WUHU216HW,2013-03-20 18:34:00,
2013-03-20 10:40:00,12.9,1.1,29.55,WSW,248,0.0,0.0,59,0.00,,,0.00,WUHU216HW,2013-03-20 18:40:00,
2013-03-20 10:45:00,12.5,1.2,29.55,WSW,248,0.0,0.0,60,0.00,,,0.00,WUHU216HW,2013-03-20 18:45:00,
2013-03-20 10:50:00,12.3,1.0,29.55,WSW,248,0.0,0.0,60,0.00,,,0.00,WUHU216HW,2013-03-20 18:50:00,
2013-03-20 10:55:00,12.5,1.2,29.54,WSW,248,0.0,0.0,60,0.00,,,0.00,WUHU216HW,2013-03-20 18:55:00,
2013-03-20 11:00:00,13.6,2.6,29.55,WSW,248,0.0,0.0,61,0.00,,,0.00,WUHU216HW,2013-03-20 19:00:00,
2013-03-20 11:05:00,14.5,3.4,29.55,WSW,248,0.0,0.0,61,0.00,,,0.00,WUHU216HW,2013-03-20 19:05:00,
2013-03-20 11:10:00,15.4,4.2,29.55,West,270,0.0,0.0,61,0.00,,,0.00,WUHU216HW,2013-03-20 19:10:00,
2013-03-20 11:15:00,16.3,4.8,29.54,West,270,0.0,0.0,60,0.00,,,0.00,WUHU216HW,2013-03-20 19:15:00,
2013-03-20 11:20:00,17.4,5.5,29.55,NNW,338,0.0,0.0,59,0.00,,,0.00,WUHU216HW,2013-03-20 19:20:00,
2013-03-20 11:25:00,19.0,6.5,29.55,NE,45,0.0,0.0,58,0.00,,,0.00,WUHU216HW,2013-03-20 19:25:00,
2013-03-20 11:30:00,20.8,7.0,29.55,NE,45,0.0,0.0,55,0.00,,,0.00,WUHU216HW,2013-03-20 19:30:00,
2013-03-20 11:35:00,21.9,7.7,29.55,NE,45,0.0,0.0,54,0.00,,,0.00,WUHU216HW,2013-03-20 19:35:00,
2013-03-20 11:40:00,23.9,9.1,29.55,ESE,113,0.0,0.0,53,0.00,,,0.00,WUHU216HW,2013-03-20 19:40:00,
2013-03-20 11:45:00,26.7,10.9,29.54,NE,45,0.0,0.0,51,0.00,,,0.00,WUHU216HW,2013-03-20 19:45:00,
2013-03-20 11:50:00,27.3,10.6,29.54,NNE,23,0.0,0.0,49,0.00,,,0.00,WUHU216HW,2013-03-20 19:50:00,
2013-03-20 11:55:00,27.1,9.4,29.54,NE,45,0.0,0.0,47,0.00,,,0.00,WUHU216HW,2013-03-20 19:55:00,
2013-03-20 12:00:00,27.1,8.9,29.54,NE,45,0.0,0.0,46,0.00,,,0.00,WUHU216HW,2013-03-20 20:00:00,
2013-03-20 12:05:00,27.6,9.4,29.54,NNE,23,1.1,1.1,46,0.00,,,0.00,WUHU216HW,2013-03-20 20:05:00,
2013-03-20 12:10:00,27.5,8.3,29.54,NE,45,0.0,1.1,44,0.00,,,0.00,WUHU216HW,2013-03-20 20:10:00,
2013-03-20 12:15:00,27.6,8.4,29.54,NNE,23,0.0,1.1,44,0.00,,,0.00,WUHU216HW,2013-03-20 20:15:00,
2013-03-20 12:20:00,27.5,7.8,29.53,NE,45,0.0,0.6,43,0.00,,,0.00,WUHU216HW,2013-03-20 20:20:00,
2013-03-20 12:25:00,28.0,8.3,29.54,ENE,68,0.0,0.0,43,0.00,,,0.00,WUHU216HW,2013-03-20 20:25:00,
2013-03-20 12:30:00,28.7,8.8,29.54,NNE,23,0.0,0.0,43,0.00,,,0.00,WUHU216HW,2013-03-20 20:30:00,
2013-03-20 12:35:00,29.3,8.9,29.54,ESE,113,0.0,0.0,42,0.00,,,0.00,WUHU216HW,2013-03-20 20:35:00,
2013-03-20 12:40:00,30.0,9.1,29.54,ENE,68,0.0,0.0,41,0.00,,,0.00,WUHU216HW,2013-03-20 20:40:00,
2013-03-20 12:45:00,31.6,10.0,29.54,North,0,0.0,0.2,40,0.00,,,0.00,WUHU216HW,2013-03-20 20:45:00,
2013-03-20 12:50:00,32.5,10.8,29.54,NNW,338,0.0,0.2,40,0.00,,,0.00,WUHU216HW,2013-03-20 20:50:00,
2013-03-20 12:55:00,33.8,12.5,29.54,NE,45,0.0,0.0,41,0.00,,,0.00,WUHU216HW,2013-03-20 20:55:00,
2013-03-20 13:00:00,36.3,14.2,29.54,NNE,23,0.0,2.0,40,0.00,,,0.00,WUHU216HW,2013-03-20 21:00:00,
2013-03-20 13:05:00,38.6,15.7,29.54,NNE,23,0.0,2.0,39,0.00,,,0.00,WUHU216HW,2013-03-20 21:05:00,
2013-03-20 13:10:00,41.1,17.3,29.54,NNE,23,0.0,0.0,38,0.00,,,0.00,WUHU216HW,2013-03-20 21:10:00,
2013-03-20 13:15:00,44.4,18.9,29.54,West,270,0.0,3.3,36,0.00,,,0.00,WUHU216HW,2013-03-20 21:15:00,
2013-03-20 13:20:00,46.0,19.7,29.54,West,270,0.0,3.3,35,0.00,,,0.00,WUHU216HW,2013-03-20 21:20:00,
2013-03-20 13:25:00,47.4,20.3,29.54,West,270,0.0,0.0,34,0.00,,,0.00,WUHU216HW,2013-03-20 21:25:00,
2013-03-20 13:30:00,49.6,21.5,29.54,WNW,293,0.0,0.0,33,0.00,,,0.00,WUHU216HW,2013-03-20 21:30:00,
2013-03-20 13:35:00,50.1,20.6,29.54,WSW,248,0.0,0.0,31,0.00,,,0.00,WUHU216HW,2013-03-20 21:35:00,
2013-03-20 13:40:00,48.7,17.8,29.54,ENE,68,0.0,0.0,29,0.00,,,0.00,WUHU216HW,2013-03-20 21:40:00,
2013-03-20 13:45:00,48.5,18.6,29.54,ENE,68,0.0,0.0,30,0.00,,,0.00,WUHU216HW,2013-03-20 21:45:00,
2013-03-20 13:50:00,49.6,19.9,29.54,East,90,0.0,0.0,30,0.00,,,0.00,WUHU216HW,2013-03-20 21:50:00,
2013-03-20 13:55:00,50.7,19.4,29.54,North,0,0.0,1.5,29,0.00,,,0.00,WUHU216HW,2013-03-20 21:55:00,
2013-03-20 14:00:00,50.5,18.3,29.54,NNE,23,0.0,1.5,28,0.00,,,0.00,WUHU216HW,2013-03-20 22:00:00,
2013-03-20 14:05:00,50.7,18.8,29.54,NNE,23,0.0,0.0,29,0.00,,,0.00,WUHU216HW,2013-03-20 22:05:00,
2013-03-20 14:10:00,50.7,17.6,29.54,NNE,23,0.0,0.0,27,0.00,,,0.00,WUHU216HW,2013-03-20 22:10:00,
2013-03-20 14:15:00,50.9,18.7,29.54,NNW,338,0.0,0.0,28,0.00,,,0.00,WUHU216HW,2013-03-20 22:15:00,
2013-03-20 14:20:00,51.9,19.6,29.54,NE,45,0.0,0.0,28,0.00,,,0.00,WUHU216HW,2013-03-20 22:20:00,
2013-03-20 14:25:00,51.9,17.7,29.54,NE,45,0.0,0.0,26,0.00,,,0.00,WUHU216HW,2013-03-20 22:25:00,
2013-03-20 14:30:00,51.2,17.1,29.53,NE,45,0.0,0.0,26,0.00,,,0.00,WUHU216HW,2013-03-20 22:30:00,
2013-03-20 14:35:00,51.0,17.0,29.53,North,0,0.0,0.0,26,0.00,,,0.00,WUHU216HW,2013-03-20 22:35:00,
2013-03-20 14:40:00,51.4,17.3,29.53,NNE,23,2.9,2.9,26,0.00,,,0.00,WUHU216HW,2013-03-20 22:40:00,
2013-03-20 14:45:00,50.3,14.5,29.53,NE,45,0.0,2.9,24,0.00,,,0.00,WUHU216HW,2013-03-20 22:45:00,
2013-03-20 14:50:00,50.1,16.2,29.53,NE,45,0.0,2.9,24,0.00,,,0.00,WUHU216HW,2013-03-20 22:50:00,
2013-03-20 14:55:00,50.1,15.3,29.53,NE,45,2.4,2.4,25,0.00,,,0.00,WUHU216HW,2013-03-20 22:55:00,
2013-03-20 15:00:00,49.6,13.9,29.53,NE,45,0.0,2.4,24,0.00,,,0.00,WUHU216HW,2013-03-20 23:00:00,
2013-03-20 15:06:00,50.1,14.5,29.53,NW,315,0.0,2.4,25,0.00,,,0.00,WUHU216HW,2013-03-20 23:06:00,
2013-03-20 15:11:00,50.7,14.8,29.53,West,270,0.0,2.2,24,0.00,,,0.00,WUHU216HW,2013-03-20 23:11:00,
2013-03-20 15:16:00,48.9,13.3,29.54,NNW,338,0.0,3.5,24,0.00,,,0.00,WUHU216HW,2013-03-20 23:16:00,
2013-03-20 15:21:00,43.7,9.7,29.53,WNW,293,0.0,3.5,25,0.00,,,0.00,WUHU216HW,2013-03-20 23:21:00,
2013-03-20 15:26:00,40.6,7.1,29.53,WNW,293,0.6,4.9,25,0.00,,,0.00,WUHU216HW,2013-03-20 23:26:00,
2013-03-20 15:31:00,37.0,5.8,29.53,North,0,0.0,4.9,27,0.00,,,0.00,WUHU216HW,2013-03-20 23:31:00,
2013-03-20 15:36:00,35.2,5.1,29.53,North,0,0.0,2.2,28,0.00,,,0.00,WUHU216HW,2013-03-20 23:36:00,
2013-03-20 15:42:00,33.9,4.9,29.53,NNW,338,0.0,2.2,29,0.00,,,0.00,WUHU216HW,2013-03-20 23:42:00,
2013-03-20 15:47:00,32.9,4.0,29.53,NNW,338,0.0,0.0,29,0.00,,,0.00,WUHU216HW,2013-03-20 23:47:00,
2013-03-20 15:52:00,32.1,4.2,29.53,NNE,23,0.0,0.0,30,0.00,,,0.00,WUHU216HW,2013-03-20 23:52:00,
2013-03-20 15:57:00,31.6,3.7,29.53,West,270,0.0,0.0,30,0.00,,,0.00,WUHU216HW,2013-03-20 23:57:00,
2013-03-20 16:02:00,30.3,2.6,29.53,ESE,113,0.0,0.0,30,0.00,,,0.00,WUHU216HW,2013-03-21 00:02:00,
2013-03-20 16:07:00,30.0,2.9,29.52,WNW,293,5.3,9.8,31,0.00,,,0.00,WUHU216HW,2013-03-21 00:07:00,
2013-03-20 16:12:00,29.4,2.4,29.53,WNW,293,5.1,9.8,31,0.00,,,0.00,WUHU216HW,2013-03-21 00:12:00,
2013-03-20 16:17:00,29.1,2.7,29.52,WNW,293,0.0,5.1,32,0.00,,,0.00,WUHU216HW,2013-03-21 00:17:00,
2013-03-20 16:22:00,28.7,2.4,29.52,West,270,0.0,3.5,32,0.00,,,0.00,WUHU216HW,2013-03-21 00:22:00,
2013-03-20 16:27:00,28.7,2.4,29.52,NW,315,0.0,0.0,32,0.00,,,0.00,WUHU216HW,2013-03-21 00:27:00,
2013-03-20 16:32:00,28.5,2.9,29.52,WNW,293,0.0,2.2,33,0.00,,,0.00,WUHU216HW,2013-03-21 00:32:00,
2013-03-20 16:37:00,28.4,2.7,29.52,NNW,338,0.0,2.2,33,0.00,,,0.00,WUHU216HW,2013-03-21 00:37:00,
2013-03-20 16:42:00,28.2,2.5,29.52,WNW,293,0.8,6.7,33,0.00,,,0.00,WUHU216HW,2013-03-21 00:42:00,
2013-03-20 16:47:00,28.0,2.4,29.52,WNW,293,0.0,6.7,33,0.00,,,0.00,WUHU216HW,2013-03-21 00:47:00,
2013-03-20 16:52:00,28.0,2.4,29.52,NW,315,0.0,0.8,33,0.00,,,0.00,WUHU216HW,2013-03-21 00:52:00,
2013-03-20 16:57:00,28.0,3.0,29.52,WNW,293,0.0,0.0,34,0.00,,,0.00,WUHU216HW,2013-03-21 00:57:00,
2013-03-20 17:02:00,28.0,3.0,29.52,North,0,0.0,0.0,34,0.00,,,0.00,WUHU216HW,2013-03-21 01:02:00,
2013-03-20 17:07:00,27.6,2.7,29.52,North,0,0.0,0.0,34,0.00,,,0.00,WUHU216HW,2013-03-21 01:07:00,
2013-03-20 17:12:00,27.6,2.7,29.52,North,0,0.0,0.0,34,0.00,,,0.00,WUHU216HW,2013-03-21 01:12:00,
2013-03-20 17:17:00,27.6,2.7,29.52,WSW,248,0.0,0.0,34,0.00,,,0.00,WUHU216HW,2013-03-21 01:17:00,
2013-03-20 17:22:00,27.5,2.5,29.52,NW,315,0.0,0.0,34,0.00,,,0.00,WUHU216HW,2013-03-21 01:22:00,
2013-03-20 17:28:00,27.5,2.5,29.52,West,270,0.0,1.7,34,0.00,,,0.00,WUHU216HW,2013-03-21 01:28:00,
2013-03-20 17:33:00,27.3,2.4,29.52,WSW,248,0.0,1.7,34,0.00,,,0.00,WUHU216HW,2013-03-21 01:33:00,
2013-03-20 17:38:00,27.1,2.2,29.52,NW,315,0.0,0.0,34,0.00,,,0.00,WUHU216HW,2013-03-21 01:38:00,
2013-03-20 17:43:00,27.1,2.2,29.52,WNW,293,0.0,0.0,34,0.00,,,0.00,WUHU216HW,2013-03-21 01:43:00,
2013-03-20 17:48:00,27.1,2.2,29.52,SW,225,0.0,0.0,34,0.00,,,0.00,WUHU216HW,2013-03-21 01:48:00,
2013-03-20 17:53:00,26.9,2.7,29.52,WSW,248,0.0,0.0,35,0.00,,,0.00,WUHU216HW,2013-03-21 01:53:00,
2013-03-20 17:58:00,26.9,2.7,29.52,SW,225,0.0,0.0,35,0.00,,,0.00,WUHU216HW,2013-03-21 01:58:00,
2013-03-20 18:04:00,26.7,1.9,29.52,SSW,203,0.0,0.0,34,0.00,,,0.00,WUHU216HW,2013-03-21 02:04:00,
2013-03-20 18:09:00,26.4,1.5,29.52,SSW,203,0.0,0.0,34,0.00,,,0.00,WUHU216HW,2013-03-21 02:09:00,
2013-03-20 18:14:00,26.4,1.5,29.52,WNW,293,0.0,0.0,34,0.00,,,0.00,WUHU216HW,2013-03-21 02:14:00,
2013-03-20 18:19:00,26.2,2.0,29.52,WSW,248,0.0,0.0,35,0.00,,,0.00,WUHU216HW,2013-03-21 02:19:00,
2013-03-20 18:24:00,26.2,2.0,29.52,West,270,0.0,0.0,35,0.00,,,0.00,WUHU216HW,2013-03-21 02:24:00,
2013-03-20 18:29:00,26.0,1.9,29.52,WNW,293,0.0,0.0,35,0.00,,,0.00,WUHU216HW,2013-03-21 02:29:00,
2013-03-20 18:34:00,25.8,1.7,29.52,WNW,293,0.0,0.0,35,0.00,,,0.00,WUHU216HW,2013-03-21 02:34:00,
2013-03-20 18:39:00,25.5,1.4,29.52,WSW,248,0.0,0.0,35,0.00,,,0.00,WUHU216HW,2013-03-21 02:39:00,
2013-03-20 18:44:00,25.7,1.6,29.52,SSW,203,0.0,0.0,35,0.00,,,0.00,WUHU216HW,2013-03-21 02:44:00,
2013-03-20 18:49:00,25.5,1.4,29.52,SSW,203,0.0,0.0,35,0.00,,,0.00,WUHU216HW,2013-03-21 02:49:00,
2013-03-20 18:55:00,25.5,1.4,29.52,SW,225,0.0,0.0,35,0.00,,,0.00,WUHU216HW,2013-03-21 02:55:00,
2013-03-20 19:00:00,25.3,1.9,29.52,West,270,0.0,0.0,36,0.00,,,0.00,WUHU216HW,2013-03-21 03:00:00,
2013-03-20 19:05:00,25.1,1.7,29.51,West,270,0.0,0.0,36,0.00,,,0.00,WUHU216HW,2013-03-21 03:05:00,
2013-03-20 19:10:00,24.8,1.4,29.51,West,270,0.0,0.0,36,0.00,,,0.00,WUHU216HW,2013-03-21 03:10:00,
2013-03-20 19:15:00,24.6,1.9,29.52,West,270,0.0,0.0,37,0.00,,,0.00,WUHU216HW,2013-03-21 03:15:00,
2013-03-20 19:20:00,24.6,1.9,29.51,West,270,0.0,0.0,37,0.00,,,0.00,WUHU216HW,2013-03-21 03:20:00,
2013-03-20 19:25:00,24.2,1.5,29.51,West,270,0.0,0.0,37,0.00,,,0.00,WUHU216HW,2013-03-21 03:25:00,
2013-03-20 19:30:00,24.0,1.4,29.51,West,270,0.0,0.0,37,0.00,,,0.00,WUHU216HW,2013-03-21 03:30:00,
2013-03-20 19:35:00,23.7,1.7,29.51,West,270,0.0,0.0,38,0.00,,,0.00,WUHU216HW,2013-03-21 03:35:00,
2013-03-20 19:40:00,23.5,1.5,29.52,West,270,0.0,0.0,38,0.00,,,0.00,WUHU216HW,2013-03-21 03:40:00,
2013-03-20 19:45:00,23.3,1.4,29.52,SW,225,0.0,0.0,38,0.00,,,0.00,WUHU216HW,2013-03-21 03:45:00,
2013-03-20 19:50:00,23.0,1.6,29.52,SW,225,5.1,5.1,39,0.00,,,0.00,WUHU216HW,2013-03-21 03:50:00,
2013-03-20 19:55:00,22.8,2.1,29.52,SSW,203,0.0,5.1,40,0.00,,,0.00,WUHU216HW,2013-03-21 03:55:00,
2013-03-20 20:00:00,22.8,2.1,29.52,WSW,248,0.0,5.1,40,0.00,,,0.00,WUHU216HW,2013-03-21 04:00:00,
2013-03-20 20:01:00,22.8,2.1,29.52,WSW,248,0.0,5.1,40,0.00,,,0.00,WUHU216HW,2013-03-21 04:01:00,
2013-03-20 20:02:00,22.6,1.9,29.52,SW,225,0.0,0.0,40,0.00,,,0.00,WUHU216HW,2013-03-21 04:02:00,
2013-03-20 20:07:00,22.2,1.6,29.52,WSW,248,0.0,0.0,40,0.00,,,0.00,WUHU216HW,2013-03-21 04:07:00,
2013-03-20 20:12:00,21.9,1.7,29.52,West,270,0.0,2.0,41,0.00,,,0.00,WUHU216HW,2013-03-21 04:12:00,
2013-03-20 20:17:00,21.5,1.4,29.53,WSW,248,0.0,2.0,41,0.00,,,0.00,WUHU216HW,2013-03-21 04:17:00,
2013-03-20 20:22:00,21.0,0.9,29.53,WSW,248,0.0,0.0,41,0.00,,,0.00,WUHU216HW,2013-03-21 04:22:00,
2013-03-20 20:27:00,20.8,0.8,29.53,WSW,248,0.0,0.0,41,0.00,,,0.00,WUHU216HW,2013-03-21 04:27:00,
2013-03-20 20:32:00,20.3,0.8,29.53,WSW,248,0.0,0.0,42,0.00,,,0.00,WUHU216HW,2013-03-21 04:32:00,
2013-03-20 20:37:00,19.9,0.4,29.53,WSW,248,0.0,0.0,42,0.00,,,0.00,WUHU216HW,2013-03-21 04:37:00,
2013-03-20 20:42:00,19.2,0.3,29.54,WSW,248,0.0,0.0,43,0.00,,,0.00,WUHU216HW,2013-03-21 04:42:00,
2013-03-20 20:47:00,18.6,-0.1,29.54,WSW,248,0.0,0.0,43,0.00,,,0.00,WUHU216HW,2013-03-21 04:47:00,
2013-03-20 20:52:00,18.3,-0.5,29.54,WSW,248,0.0,0.0,43,0.00,,,0.00,WUHU216HW,2013-03-21 04:52:00,
2013-03-20 20:57:00,17.4,-0.8,29.54,WSW,248,0.0,0.0,44,0.00,,,0.00,WUHU216HW,2013-03-21 04:57:00,
2013-03-20 21:02:00,17.0,-0.7,29.54,WSW,248,0.0,0.0,45,0.00,,,0.00,WUHU216HW,2013-03-21 05:02:00,
2013-03-20 21:07:00,16.3,-0.9,29.55,WSW,248,0.0,0.0,46,0.00,,,0.00,WUHU216HW,2013-03-21 05:07:00,
2013-03-20 21:12:00,15.9,-1.2,29.55,WSW,248,0.0,0.0,46,0.00,,,0.00,WUHU216HW,2013-03-21 05:12:00,
2013-03-20 21:17:00,15.6,-1.1,29.54,WSW,248,0.0,0.0,47,0.00,,,0.00,WUHU216HW,2013-03-21 05:17:00,
2013-03-20 21:22:00,14.9,-1.8,29.54,WSW,248,0.0,0.0,47,0.00,,,0.00,WUHU216HW,2013-03-21 05:22:00,
2013-03-20 21:27:00,14.5,-1.7,29.55,WSW,248,0.0,0.0,48,0.00,,,0.00,WUHU216HW,2013-03-21 05:27:00,
2013-03-20 21:32:00,14.1,-2.0,29.54,WSW,248,0.0,0.0,48,0.00,,,0.00,WUHU216HW,2013-03-21 05:32:00,
2013-03-20 21:37:00,13.6,-2.0,29.55,WSW,248,0.0,0.0,49,0.00,,,0.00,WUHU216HW,2013-03-21 05:37:00,
2013-03-20 21:40:00,13.2,-2.4,29.55,WSW,248,0.0,0.0,49,0.00,,,0.00,WUHU216HW,2013-03-21 05:40:00,